Terminal Aerodrome Forecast
Issued by NWS

Home | Current Version | Previous Version | Text Only | Print | Product List | Glossary On
Versions: 1 2 3 4 5 6 7 8 9 10 11 12 13 14 15 16 17 18 19 20 21 22 23 24 25
000
FTUS43 KMKX 290728 AAA
TAFUES
TAF AMD
KUES 290728Z 2907/3006 04006KT P6SM BKN012 OVC035
     FM290900 04009KT P6SM SCT015 BKN030
     FM291500 07008KT P6SM BKN040 PROB30 2919/2923 -SHRA
     FM300200 03006KT P6SM BKN080=

USA.gov is the U.S. government's official web portal to all federal, state and local government web resources and services.